This is the latest recevied weather packets stored in our database for station/object LKLN. If no packets are shown the sender has not sent any weather packets the latest 1 day(s).
| Time | Temp. | Humidity | Pressure | Rain* | Wind** | Luminosity | Snow |
|---|---|---|---|---|---|---|---|
| 1777987685 | 25° C | 29% | 1005 hPa | - | 2.24 m/s, 0° | - | - |
| 1777985884 | 25° C | 33% | 1006 hPa | - | 2.24 m/s, 70° | - | - |
| 1777984084 | 23.89° C | 36% | 1006 hPa | - | 2.24 m/s, 110° | - | - |
| 1777982284 | 25° C | 36% | 1006 hPa | - | 2.68 m/s, 180° | - | - |
| 1777980484 | 23.89° C | 38% | 1006 hPa | - | 1.34 m/s, 0° | - | - |
| 1777978685 | 23.89° C | 38% | 1007 hPa | - | 2.24 m/s, 190° | - | - |
| 1777976884 | 22.78° C | 43% | 1007 hPa | - | 1.34 m/s, 0° | - | - |
| 1777975084 | 22.78° C | 43% | 1007 hPa | - | 1.34 m/s, 180° | - | - |
| 1777973283 | 22.22° C | 46% | 1008 hPa | - | 0.45 m/s, 0° | - | - |
| 1777971484 | 21.11° C | 46% | 1008 hPa | - | 0.89 m/s, 0° | - | - |
| 1777969684 | 20° C | 49% | 1008 hPa | - | 0.89 m/s, 0° | - | - |
| 1777967884 | 20° C | 52% | 1008 hPa | - | 0.89 m/s, 0° | - | - |
| 1777966083 | 18.89° C | 52% | 1009 hPa | - | 0.45 m/s, 0° | - | - |
| 1777964284 | 17.78° C | 59% | 1009 hPa | - | 1.34 m/s, 90° | - | - |
| 1777962485 | 17.22° C | 63% | 1009 hPa | - | 2.24 m/s, 80° | - | - |
| 1777960685 | 16.11° C | 67% | 1009 hPa | - | 1.34 m/s, 40° | - | - |
| 1777958884 | 15° C | 72% | 1009 hPa | - | 0.89 m/s, 0° | - | - |
| 1777957084 | 12.78° C | 76% | 1009 hPa | - | 0.45 m/s, 0° | - | - |
| 1777955284 | 13.89° C | 71% | 1009 hPa | - | 0.89 m/s, 0° | - | - |
| 1777953484 | 13.89° C | 71% | 1009 hPa | - | 0.89 m/s, 0° | - | - |
| 1777951687 | 13.89° C | 71% | 1009 hPa | - | 0.45 m/s, 0° | - | - |
| 1777949945 | 12.78° C | 76% | 1009 hPa | - | 0.89 m/s, 0° | - | - |
| 1777948084 | 12.78° C | 76% | 1009 hPa | - | 0 m/s | - | - |
| 1777946284 | 13.89° C | 71% | 1010 hPa | - | 0 m/s | - | - |
| 1777944484 | 13.89° C | 67% | 1010 hPa | - | 0 m/s | - | - |
* Rain since midnight (hover to see other rain measurements)
** Current wind speed in m/s (hover to see current wind gust speed)